Time;durP1;ratioP1;P1;durP2;ratioP2;P2;SDS_P1;SDS_P2;PMS_P1;PMS_P2;Temp;Humidity;BMP_temperature;BMP_pressure;BME280_temperature;BME280_humidity;BME280_pressure;Samples;Min_cycle;Max_cycle;Signal;HPM_P1;HPM_P2
2023/06/27 00:00:35;;;;;;;;;;;20.90;87.90;;;;;;5116288;28;20339;-65
2023/06/27 00:03:00;;;;;;;;;;;20.90;88.40;;;;;;5116009;28;20499;-65
2023/06/27 00:05:26;;;;;;;;;;;20.80;88.10;;;;;;5116081;28;19985;-65
2023/06/27 00:07:51;;;;;;;;;;;20.80;88.70;;;;;;5116185;28;19984;-65
2023/06/27 00:10:17;;;;;;;;;;;20.80;88.80;;;;;;5115969;28;20058;-65
2023/06/27 00:12:44;;;;;;;;;;;20.80;88.80;;;;;;5115821;28;20020;-65
2023/06/27 00:15:09;;;;;;;;;;;20.80;88.80;;;;;;5116053;28;19992;-65
2023/06/27 00:17:37;;;;;;;;;;;20.70;88.90;;;;;;5115522;28;19988;-65
2023/06/27 00:20:04;;;;;;;;;;;20.70;88.90;;;;;;5115676;28;19995;-65
2023/06/27 00:22:30;;;;;;;;;;;20.70;88.90;;;;;;5116036;28;20424;-65
2023/06/27 00:24:55;;;;;;;;;;;20.70;89.00;;;;;;5115787;28;20034;-65
2023/06/27 00:27:21;;;;;;;;;;;20.60;88.80;;;;;;5115604;28;19985;-65
2023/06/27 00:29:47;;;;;;;;;;;20.60;88.90;;;;;;5115674;28;19996;-65
2023/06/27 00:32:12;;;;;;;;;;;20.60;88.60;;;;;;5115290;28;20079;-65
2023/06/27 00:34:38;;;;;;;;;;;20.50;88.90;;;;;;5115564;28;19989;-65
2023/06/27 00:37:03;;;;;;;;;;;20.50;89.00;;;;;;5115359;28;19992;-65
2023/06/27 00:39:29;;;;;;;;;;;20.50;89.10;;;;;;5115402;28;19984;-65
2023/06/27 00:41:55;;;;;;;;;;;20.40;88.90;;;;;;5115300;28;19985;-65
2023/06/27 00:44:20;;;;;;;;;;;20.40;88.70;;;;;;5115213;28;19993;-65
2023/06/27 00:46:47;;;;;;;;;;;20.40;89.10;;;;;;5115179;28;20025;-65
2023/06/27 00:49:13;;;;;;;;;;;20.30;89.40;;;;;;5115171;28;20508;-65
2023/06/27 00:51:40;;;;;;;;;;;20.30;89.30;;;;;;5115043;28;20060;-65
2023/06/27 00:54:06;;;;;;;;;;;20.20;89.60;;;;;;5115182;28;19984;-65
2023/06/27 00:56:31;;;;;;;;;;;20.20;89.90;;;;;;5115099;28;19985;-65
2023/06/27 00:58:59;;;;;;;;;;;20.20;90.10;;;;;;5115269;28;20099;-65
2023/06/27 01:01:25;;;;;;;;;;;20.10;90.30;;;;;;5114867;28;20451;-65
2023/06/27 01:03:51;;;;;;;;;;;20.10;90.40;;;;;;5115015;28;20076;-65
2023/06/27 01:06:24;;;;;;;;;;;20.10;90.70;;;;;;5114932;28;19984;-65
2023/06/27 01:08:55;;;;;;;;;;;20.00;90.70;;;;;;5115121;28;20347;-65
2023/06/27 01:11:35;;;;;;;;;;;20.00;90.70;;;;;;5114732;28;20019;-65
2023/06/27 01:14:02;;;;;;;;;;;19.90;90.70;;;;;;5114898;28;19984;-65
2023/06/27 01:16:29;;;;;;;;;;;19.90;90.50;;;;;;5114489;28;19993;-65
2023/06/27 01:18:56;;;;;;;;;;;19.90;90.40;;;;;;5114634;28;19985;-65
2023/06/27 01:21:24;;;;;;;;;;;19.80;90.40;;;;;;5114690;28;19995;-65
2023/06/27 01:23:50;;;;;;;;;;;19.90;90.60;;;;;;5114864;28;19988;-65
2023/06/27 01:26:16;;;;;;;;;;;19.80;90.80;;;;;;5114543;28;20390;-65
2023/06/27 01:28:41;;;;;;;;;;;19.70;90.70;;;;;;5114514;28;19989;-65
2023/06/27 01:31:07;;;;;;;;;;;19.70;90.90;;;;;;5114172;28;20068;-65
2023/06/27 01:33:39;;;;;;;;;;;19.70;91.00;;;;;;5114503;28;19996;-65
2023/06/27 01:36:09;;;;;;;;;;;19.70;91.10;;;;;;5114475;28;19989;-65
2023/06/27 01:38:54;;;;;;;;;;;19.70;91.10;;;;;;5114541;28;19992;-65
2023/06/27 01:41:22;;;;;;;;;;;19.70;91.40;;;;;;5114398;28;20033;-65
2023/06/27 01:43:49;;;;;;;;;;;19.70;91.10;;;;;;5113810;28;20001;-65
2023/06/27 01:46:14;;;;;;;;;;;19.70;91.20;;;;;;5114100;28;20028;-65
2023/06/27 01:48:40;;;;;;;;;;;19.60;91.40;;;;;;5114287;28;19985;-65
2023/06/27 01:51:09;;;;;;;;;;;19.60;91.60;;;;;;5114533;28;20008;-65
2023/06/27 01:53:36;;;;;;;;;;;19.50;91.70;;;;;;5114620;28;19988;-65
2023/06/27 01:56:02;;;;;;;;;;;19.50;91.90;;;;;;5114174;28;19992;-65
2023/06/27 01:58:28;;;;;;;;;;;19.50;91.80;;;;;;5114459;28;20361;-65
2023/06/27 02:00:53;;;;;;;;;;;19.50;91.90;;;;;;5113935;28;20079;-65
2023/06/27 02:03:19;;;;;;;;;;;19.50;92.00;;;;;;5114086;28;20035;-65
2023/06/27 02:05:44;;;;;;;;;;;19.50;91.90;;;;;;5114061;28;20067;-65
2023/06/27 02:08:10;;;;;;;;;;;19.50;91.90;;;;;;5114124;28;19984;-65
2023/06/27 02:10:35;;;;;;;;;;;19.50;92.00;;;;;;5113870;28;20042;-65
2023/06/27 02:13:01;;;;;;;;;;;19.40;92.00;;;;;;5114048;28;19992;-65
2023/06/27 02:15:27;;;;;;;;;;;19.50;92.10;;;;;;5113842;28;19988;-65
2023/06/27 02:17:52;;;;;;;;;;;19.40;91.90;;;;;;5095702;28;20450;-65
2023/06/27 02:20:18;;;;;;;;;;;19.50;92.00;;;;;;5114079;28;19992;-65
2023/06/27 02:22:44;;;;;;;;;;;19.40;91.90;;;;;;5113926;28;20502;-65
2023/06/27 02:25:09;;;;;;;;;;;19.40;91.80;;;;;;5113952;28;19991;-65
2023/06/27 02:27:35;;;;;;;;;;;19.30;92.00;;;;;;5113792;28;20117;-65
2023/06/27 02:30:00;;;;;;;;;;;19.30;92.00;;;;;;5113647;28;20118;-65
2023/06/27 02:32:26;;;;;;;;;;;19.40;92.00;;;;;;5113802;28;20013;-65
2023/06/27 02:34:51;;;;;;;;;;;19.40;92.00;;;;;;5113703;28;19985;-65
2023/06/27 02:37:17;;;;;;;;;;;19.40;92.10;;;;;;5113982;28;20490;-65
2023/06/27 02:39:42;;;;;;;;;;;19.30;91.90;;;;;;5114131;28;20397;-65
2023/06/27 02:42:08;;;;;;;;;;;19.30;92.10;;;;;;5113645;28;20054;-65
2023/06/27 02:44:33;;;;;;;;;;;19.20;92.40;;;;;;5095172;28;19988;-65
2023/06/27 02:46:59;;;;;;;;;;;19.10;92.70;;;;;;5113653;28;20026;-65
2023/06/27 02:49:24;;;;;;;;;;;19.20;92.80;;;;;;5113665;28;20043;-65
2023/06/27 02:51:50;;;;;;;;;;;19.20;93.20;;;;;;5113584;28;20409;-65
2023/06/27 02:54:16;;;;;;;;;;;19.10;93.60;;;;;;5113612;28;19984;-65
2023/06/27 02:56:41;;;;;;;;;;;19.10;93.80;;;;;;5115636;28;19984;-65
2023/06/27 02:59:07;;;;;;;;;;;19.10;94.20;;;;;;5117156;28;19995;-65
2023/06/27 03:01:33;;;;;;;;;;;19.10;93.80;;;;;;5117794;28;19989;-65
2023/06/27 03:03:58;;;;;;;;;;;19.10;94.00;;;;;;5117408;28;19991;-65
2023/06/27 03:06:24;;;;;;;;;;;19.10;93.40;;;;;;5117263;28;20435;-65
2023/06/27 03:08:50;;;;;;;;;;;19.10;92.80;;;;;;5117199;28;20522;-65
2023/06/27 03:11:15;;;;;;;;;;;19.10;92.70;;;;;;5117206;28;20015;-65
2023/06/27 03:13:41;;;;;;;;;;;19.00;92.50;;;;;;5116881;28;19984;-65
2023/06/27 03:16:06;;;;;;;;;;;18.90;92.70;;;;;;5117183;28;19985;-65
2023/06/27 03:18:32;;;;;;;;;;;18.90;92.70;;;;;;5117011;28;20094;-65
2023/06/27 03:20:57;;;;;;;;;;;18.90;92.80;;;;;;5117091;28;19992;-65
2023/06/27 03:23:23;;;;;;;;;;;18.90;92.90;;;;;;5116906;28;20030;-65
2023/06/27 03:25:48;;;;;;;;;;;18.90;92.90;;;;;;5116893;28;19999;-65
2023/06/27 03:28:14;;;;;;;;;;;18.90;92.80;;;;;;5116701;28;19999;-66
2023/06/27 03:30:43;;;;;;;;;;;19.00;92.80;;;;;;5116667;28;20023;-65
2023/06/27 03:33:12;;;;;;;;;;;19.00;92.90;;;;;;5117017;28;20354;-65
2023/06/27 03:35:37;;;;;;;;;;;19.00;92.80;;;;;;5116710;28;20001;-65
2023/06/27 03:38:03;;;;;;;;;;;19.00;92.80;;;;;;5116590;28;20052;-65
2023/06/27 03:40:28;;;;;;;;;;;19.00;92.80;;;;;;5116370;28;20130;-65
2023/06/27 03:42:55;;;;;;;;;;;19.00;92.90;;;;;;5116647;28;20511;-65
2023/06/27 03:45:21;;;;;;;;;;;19.00;93.20;;;;;;5116320;28;20023;-65
2023/06/27 03:47:47;;;;;;;;;;;18.90;93.30;;;;;;5116596;28;20208;-65
2023/06/27 03:50:12;;;;;;;;;;;18.90;93.60;;;;;;5116470;28;19984;-65
2023/06/27 03:52:38;;;;;;;;;;;18.90;93.60;;;;;;5116270;28;20478;-65
2023/06/27 03:55:04;;;;;;;;;;;19.00;93.70;;;;;;5116366;28;20035;-65
2023/06/27 03:57:30;;;;;;;;;;;19.00;94.10;;;;;;5116397;28;20026;-65
2023/06/27 03:59:55;;;;;;;;;;;19.00;93.70;;;;;;5116198;28;20455;-65
2023/06/27 04:02:21;;;;;;;;;;;19.00;93.80;;;;;;5116227;28;20393;-65
2023/06/27 04:04:46;;;;;;;;;;;19.10;94.10;;;;;;5116138;28;20508;-65
2023/06/27 04:07:14;;;;;;;;;;;19.10;94.00;;;;;;5115724;28;19989;-65
2023/06/27 04:09:40;;;;;;;;;;;19.20;94.40;;;;;;5115865;28;19989;-65
2023/06/27 04:12:05;;;;;;;;;;;19.20;94.50;;;;;;5115982;28;20015;-65
2023/06/27 04:14:31;;;;;;;;;;;19.20;94.60;;;;;;5116049;28;19985;-65
2023/06/27 04:16:57;;;;;;;;;;;19.20;94.80;;;;;;5115934;28;19992;-65
2023/06/27 04:19:22;;;;;;;;;;;19.20;94.60;;;;;;5097696;28;19992;-65
2023/06/27 04:21:48;;;;;;;;;;;19.20;94.80;;;;;;5115843;28;20091;-65
2023/06/27 04:24:13;;;;;;;;;;;19.20;94.80;;;;;;5115463;28;20068;-65
2023/06/27 04:26:39;;;;;;;;;;;19.20;95.00;;;;;;5115886;28;19985;-65
2023/06/27 04:29:04;;;;;;;;;;;19.30;95.10;;;;;;5115644;28;20073;-65
2023/06/27 04:31:30;;;;;;;;;;;19.30;95.10;;;;;;5115551;28;20042;-65
2023/06/27 04:33:59;;;;;;;;;;;19.30;95.00;;;;;;5115827;28;19992;-65
2023/06/27 04:36:28;;;;;;;;;;;19.30;95.00;;;;;;5115626;28;19992;-65
2023/06/27 04:38:53;;;;;;;;;;;19.30;95.20;;;;;;5115089;28;19988;-65
2023/06/27 04:41:19;;;;;;;;;;;19.40;95.40;;;;;;5115568;28;19995;-65
2023/06/27 04:43:44;;;;;;;;;;;19.30;95.80;;;;;;5115248;28;20049;-65
2023/06/27 04:46:10;;;;;;;;;;;19.30;95.90;;;;;;5115189;28;20073;-64
2023/06/27 04:48:36;;;;;;;;;;;19.40;96.20;;;;;;5115242;28;19985;-65
2023/06/27 04:51:02;;;;;;;;;;;19.40;96.20;;;;;;5115249;28;20057;-65
2023/06/27 04:53:27;;;;;;;;;;;19.50;96.20;;;;;;5096929;28;19996;-64
2023/06/27 04:55:53;;;;;;;;;;;19.50;95.90;;;;;;5115130;28;19992;-65
2023/06/27 04:58:19;;;;;;;;;;;19.50;96.10;;;;;;5115119;28;20399;-64
2023/06/27 05:00:47;;;;;;;;;;;19.60;96.10;;;;;;5114977;28;20033;-65
2023/06/27 05:03:13;;;;;;;;;;;19.60;96.20;;;;;;5114835;28;19985;-65
2023/06/27 05:05:38;;;;;;;;;;;19.70;96.20;;;;;;5114985;28;19984;-65
2023/06/27 05:08:04;;;;;;;;;;;19.70;95.90;;;;;;5114656;28;19985;-65
2023/06/27 05:10:30;;;;;;;;;;;19.80;96.30;;;;;;5113979;28;20079;-65
2023/06/27 05:12:56;;;;;;;;;;;19.80;96.00;;;;;;5114584;28;19988;-65
2023/06/27 05:15:22;;;;;;;;;;;19.90;96.20;;;;;;5114778;28;20492;-64
2023/06/27 05:17:49;;;;;;;;;;;19.90;96.40;;;;;;5113644;28;20072;-65
2023/06/27 05:20:14;;;;;;;;;;;19.90;96.50;;;;;;5113740;28;19995;-65
2023/06/27 05:22:40;;;;;;;;;;;20.00;96.50;;;;;;5114325;28;19985;-66
2023/06/27 05:25:06;;;;;;;;;;;20.10;96.50;;;;;;5114479;28;19991;-65
2023/06/27 05:27:31;;;;;;;;;;;20.10;96.50;;;;;;5113172;28;20431;-65
2023/06/27 05:29:57;;;;;;;;;;;20.20;95.90;;;;;;5114519;28;20020;-65
2023/06/27 05:32:22;;;;;;;;;;;20.40;95.70;;;;;;5114441;28;20008;-64
2023/06/27 05:34:48;;;;;;;;;;;20.50;94.70;;;;;;5114214;28;19985;-65
2023/06/27 05:37:13;;;;;;;;;;;20.60;94.30;;;;;;5114158;28;19985;-65
2023/06/27 05:39:39;;;;;;;;;;;20.70;93.90;;;;;;5114397;28;19985;-65
2023/06/27 05:42:04;;;;;;;;;;;20.70;93.70;;;;;;5114090;28;20001;-67
2023/06/27 05:44:30;;;;;;;;;;;20.80;94.60;;;;;;5114216;28;19985;-65
2023/06/27 05:46:56;;;;;;;;;;;20.90;94.00;;;;;;5114097;28;20506;-65
2023/06/27 05:49:21;;;;;;;;;;;21.10;94.20;;;;;;5114289;28;19984;-65
2023/06/27 05:51:47;;;;;;;;;;;21.20;93.90;;;;;;5113826;28;20111;-65
2023/06/27 05:54:12;;;;;;;;;;;21.30;94.00;;;;;;5112650;28;20047;-65
2023/06/27 05:56:38;;;;;;;;;;;21.40;93.60;;;;;;5112266;28;19985;-65
2023/06/27 05:59:04;;;;;;;;;;;21.40;93.50;;;;;;5113065;28;19984;-65
2023/06/27 06:01:29;;;;;;;;;;;21.50;92.40;;;;;;5113657;28;20363;-65
2023/06/27 06:03:55;;;;;;;;;;;21.70;92.50;;;;;;5112495;28;19985;-65
2023/06/27 06:06:20;;;;;;;;;;;21.80;91.90;;;;;;5111691;28;20097;-65
2023/06/27 06:08:46;;;;;;;;;;;21.90;91.60;;;;;;5111827;28;20032;-65
2023/06/27 06:11:11;;;;;;;;;;;22.00;90.90;;;;;;5111957;28;20509;-65
2023/06/27 06:13:37;;;;;;;;;;;22.00;90.80;;;;;;5112016;28;20467;-65
2023/06/27 06:16:02;;;;;;;;;;;22.20;90.40;;;;;;5112203;28;19992;-65
2023/06/27 06:18:28;;;;;;;;;;;22.20;91.00;;;;;;5112309;28;20377;-64
2023/06/27 06:20:54;;;;;;;;;;;22.40;90.20;;;;;;5112863;28;19992;-65
2023/06/27 06:23:20;;;;;;;;;;;22.50;89.90;;;;;;5112264;28;20039;-65
2023/06/27 06:25:45;;;;;;;;;;;22.60;88.70;;;;;;5112503;28;19989;-65
2023/06/27 06:28:11;;;;;;;;;;;22.70;89.50;;;;;;5112504;28;20000;-65
2023/06/27 06:30:36;;;;;;;;;;;22.80;88.90;;;;;;5114423;28;20366;-65
2023/06/27 06:33:02;;;;;;;;;;;22.80;89.80;;;;;;5117258;28;20079;-65
2023/06/27 06:35:27;;;;;;;;;;;23.00;89.70;;;;;;5117036;28;20035;-65
2023/06/27 06:37:53;;;;;;;;;;;23.10;86.90;;;;;;5117707;28;19985;-65
2023/06/27 06:40:19;;;;;;;;;;;23.30;85.80;;;;;;5117745;28;20011;-65
2023/06/27 06:42:44;;;;;;;;;;;23.40;84.10;;;;;;5117613;28;20001;-65
2023/06/27 06:45:10;;;;;;;;;;;23.50;83.90;;;;;;5116841;28;19988;-65
2023/06/27 06:47:35;;;;;;;;;;;23.70;82.10;;;;;;5117799;28;20016;-65
2023/06/27 06:50:01;;;;;;;;;;;23.80;84.20;;;;;;5117379;28;19992;-65
2023/06/27 06:52:26;;;;;;;;;;;23.90;83.00;;;;;;5117577;28;20198;-64
2023/06/27 06:54:52;;;;;;;;;;;24.00;80.10;;;;;;5117445;28;19991;-65
2023/06/27 06:57:18;;;;;;;;;;;24.00;81.20;;;;;;5117550;28;20080;-65
2023/06/27 06:59:44;;;;;;;;;;;24.10;80.40;;;;;;5117511;28;19984;-65
2023/06/27 07:02:09;;;;;;;;;;;24.20;79.30;;;;;;5117330;28;20401;-65
2023/06/27 07:04:35;;;;;;;;;;;24.40;77.70;;;;;;5116986;28;19988;-65
2023/06/27 07:07:01;;;;;;;;;;;24.50;79.10;;;;;;5117359;28;20034;-65
2023/06/27 07:09:28;;;;;;;;;;;24.60;77.20;;;;;;5117199;28;19985;-65
2023/06/27 07:11:54;;;;;;;;;;;24.70;78.90;;;;;;5124624;27;20065;-66
2023/06/27 07:14:20;;;;;;;;;;;24.90;79.20;;;;;;5136779;27;20446;-66
2023/06/27 07:16:45;;;;;;;;;;;25.00;77.50;;;;;;5137503;27;19988;-65
2023/06/27 07:19:11;;;;;;;;;;;25.10;79.70;;;;;;5135831;27;19996;-65
2023/06/27 07:21:37;;;;;;;;;;;25.20;77.00;;;;;;5136734;27;20033;-65
2023/06/27 07:24:03;;;;;;;;;;;25.30;77.50;;;;;;5136356;27;19992;-66
2023/06/27 07:26:29;;;;;;;;;;;25.40;76.60;;;;;;5122837;27;20034;-65
2023/06/27 07:28:54;;;;;;;;;;;25.50;77.50;;;;;;5116253;28;19985;-65
2023/06/27 07:31:20;;;;;;;;;;;25.70;76.10;;;;;;5115061;28;20007;-65
2023/06/27 07:33:45;;;;;;;;;;;25.80;74.60;;;;;;5115224;28;19991;-65
2023/06/27 07:36:11;;;;;;;;;;;25.90;74.70;;;;;;5115081;28;19984;-65
2023/06/27 07:38:38;;;;;;;;;;;26.00;75.40;;;;;;5115869;28;20463;-65
2023/06/27 07:41:03;;;;;;;;;;;26.20;72.40;;;;;;5115591;28;20079;-65
2023/06/27 07:43:29;;;;;;;;;;;26.30;71.50;;;;;;5115680;28;20079;-65
2023/06/27 07:45:54;;;;;;;;;;;26.60;73.00;;;;;;5116163;28;20509;-65
2023/06/27 07:48:20;;;;;;;;;;;26.70;70.20;;;;;;5116110;28;20358;-65
2023/06/27 07:50:45;;;;;;;;;;;27.50;69.10;;;;;;5116268;28;20454;-65
2023/06/27 07:53:11;;;;;;;;;;;29.80;67.40;;;;;;5115310;28;19985;-65
2023/06/27 07:55:36;;;;;;;;;;;32.00;61.50;;;;;;5117643;27;19996;-65
2023/06/27 07:58:02;;;;;;;;;;;33.60;58.90;;;;;;5134589;27;19995;-65
2023/06/27 08:00:28;;;;;;;;;;;34.70;53.70;;;;;;5136292;27;20142;-66
2023/06/27 08:02:54;;;;;;;;;;;35.50;52.50;;;;;;5136211;27;19989;-65
2023/06/27 08:05:19;;;;;;;;;;;36.00;49.60;;;;;;5118074;27;19988;-65
2023/06/27 08:07:45;;;;;;;;;;;36.10;48.90;;;;;;5135544;27;19994;-65
2023/06/27 08:10:11;;;;;;;;;;;36.10;48.90;;;;;;5135414;27;20458;-66
2023/06/27 08:12:37;;;;;;;;;;;36.70;48.50;;;;;;5135293;27;20005;-65
2023/06/27 08:15:03;;;;;;;;;;;36.90;47.10;;;;;;5129867;27;20354;-65
2023/06/27 08:17:30;;;;;;;;;;;37.20;46.50;;;;;;5134261;27;20033;-65
2023/06/27 08:19:56;;;;;;;;;;;37.60;44.70;;;;;;5134594;27;19984;-65
2023/06/27 08:22:21;;;;;;;;;;;37.80;43.30;;;;;;5125157;27;20042;-65
2023/06/27 08:24:47;;;;;;;;;;;38.40;45.20;;;;;;5115559;28;20486;-65
2023/06/27 08:27:13;;;;;;;;;;;38.50;44.00;;;;;;5113654;28;20359;-65
2023/06/27 08:29:40;;;;;;;;;;;38.70;45.10;;;;;;5113096;28;20362;-65
2023/06/27 08:32:05;;;;;;;;;;;38.70;43.30;;;;;;5113366;28;20054;-65
2023/06/27 08:34:33;;;;;;;;;;;38.80;44.40;;;;;;5114359;28;19984;-65
2023/06/27 08:36:59;;;;;;;;;;;38.90;45.30;;;;;;5115293;28;19989;-65
2023/06/27 08:39:25;;;;;;;;;;;38.70;45.40;;;;;;5097017;28;19996;-65
2023/06/27 08:41:51;;;;;;;;;;;38.50;43.90;;;;;;5115380;28;20350;-63
2023/06/27 08:44:16;;;;;;;;;;;38.40;45.70;;;;;;5113447;28;19988;-63
2023/06/27 08:46:43;;;;;;;;;;;38.20;46.30;;;;;;5113100;28;20024;-63
2023/06/27 08:49:10;;;;;;;;;;;38.30;46.00;;;;;;5114401;28;20022;-63
2023/06/27 08:51:37;;;;;;;;;;;38.40;45.30;;;;;;5112789;28;20009;-63
2023/06/27 08:54:14;;;;;;;;;;;38.70;44.60;;;;;;5113647;28;19995;-63
2023/06/27 08:56:40;;;;;;;;;;;38.80;44.00;;;;;;5115353;28;19988;-63
2023/06/27 08:59:07;;;;;;;;;;;38.50;45.20;;;;;;5114890;28;20034;-63
2023/06/27 09:01:34;;;;;;;;;;;38.50;43.40;;;;;;5114860;28;19984;-63
2023/06/27 09:04:01;;;;;;;;;;;38.90;44.10;;;;;;5096717;28;20340;-63
2023/06/27 09:06:27;;;;;;;;;;;39.20;43.70;;;;;;5115170;28;19995;-63
2023/06/27 09:08:53;;;;;;;;;;;39.30;43.50;;;;;;5114855;28;19993;-63
2023/06/27 09:11:19;;;;;;;;;;;39.10;42.10;;;;;;5114794;28;20009;-63
2023/06/27 09:13:45;;;;;;;;;;;39.30;42.40;;;;;;5114707;28;20083;-63
2023/06/27 09:16:11;;;;;;;;;;;39.40;40.10;;;;;;5114722;28;20031;-63
2023/06/27 09:18:38;;;;;;;;;;;39.00;41.10;;;;;;5114553;28;19985;-64
2023/06/27 09:21:03;;;;;;;;;;;38.60;42.50;;;;;;5114609;28;20007;-63
2023/06/27 09:23:30;;;;;;;;;;;37.80;42.40;;;;;;5128639;27;19992;-63
2023/06/27 09:26:09;;;;;;;;;;;38.10;41.40;;;;;;5135136;27;20406;-63
2023/06/27 09:28:44;;;;;;;;;;;38.60;42.40;;;;;;5134878;27;19992;-63
2023/06/27 09:31:10;;;;;;;;;;;38.70;40.70;;;;;;5129418;27;20485;-63
2023/06/27 09:33:36;;;;;;;;;;;38.40;39.90;;;;;;5114265;28;19989;-63
2023/06/27 09:36:02;;;;;;;;;;;37.70;39.40;;;;;;5114515;28;19988;-63
2023/06/27 09:38:30;;;;;;;;;;;37.70;41.60;;;;;;5133289;27;20347;-63
2023/06/27 09:41:05;;;;;;;;;;;38.00;42.00;;;;;;5134897;27;19992;-63
2023/06/27 09:43:36;;;;;;;;;;;38.10;40.70;;;;;;5134233;27;20373;-63
2023/06/27 09:46:04;;;;;;;;;;;38.40;43.50;;;;;;5133786;27;20020;-63
2023/06/27 09:48:32;;;;;;;;;;;38.80;41.80;;;;;;5133080;27;20324;-63
2023/06/27 09:50:58;;;;;;;;;;;38.90;42.10;;;;;;5133509;27;20016;-63
2023/06/27 09:53:25;;;;;;;;;;;39.10;43.30;;;;;;5134650;27;20386;-64
2023/06/27 09:55:58;;;;;;;;;;;38.80;40.60;;;;;;5115716;27;19992;-63
2023/06/27 09:58:28;;;;;;;;;;;38.80;42.40;;;;;;5115123;27;19988;-63
2023/06/27 10:00:54;;;;;;;;;;;38.20;40.80;;;;;;5134638;27;19984;-63
2023/06/27 10:03:21;;;;;;;;;;;38.00;41.70;;;;;;5134309;28;20038;-63
2023/06/27 10:05:46;;;;;;;;;;;37.80;42.90;;;;;;5134162;27;19992;-63
2023/06/27 10:08:12;;;;;;;;;;;37.60;42.90;;;;;;5134871;28;19988;-63
2023/06/27 10:10:38;;;;;;;;;;;37.90;43.40;;;;;;5132955;28;19992;-63
2023/06/27 10:13:04;;;;;;;;;;;38.20;38.60;;;;;;5134181;28;19991;-63
2023/06/27 10:15:30;;;;;;;;;;;37.30;40.30;;;;;;5134571;28;20438;-63
2023/06/27 10:17:56;;;;;;;;;;;36.80;40.20;;;;;;5134419;28;20023;-63
2023/06/27 10:20:21;;;;;;;;;;;36.20;42.00;;;;;;5134670;28;20019;-63
2023/06/27 10:22:48;;;;;;;;;;;35.60;43.20;;;;;;5134323;28;20038;-63
2023/06/27 10:25:16;;;;;;;;;;;35.60;44.60;;;;;;5134467;28;19984;-63
2023/06/27 10:27:44;;;;;;;;;;;36.50;42.60;;;;;;5134269;28;19984;-63
2023/06/27 10:30:19;;;;;;;;;;;36.60;42.40;;;;;;5134667;28;19989;-63
2023/06/27 10:32:44;;;;;;;;;;;36.00;42.80;;;;;;5134540;28;20061;-63
2023/06/27 10:35:36;;;;;;;;;;;35.70;45.10;;;;;;5134353;28;19985;-63
2023/06/27 10:38:06;;;;;;;;;;;36.40;44.10;;;;;;5087125;28;19988;-63
2023/06/27 10:40:50;;;;;;;;;;;36.80;42.30;;;;;;5134328;28;20008;-63
2023/06/27 10:43:34;;;;;;;;;;;36.40;42.00;;;;;;5133969;28;20065;-63
2023/06/27 10:46:06;;;;;;;;;;;35.70;42.50;;;;;;5134196;28;20031;-63
2023/06/27 10:48:53;;;;;;;;;;;34.90;44.50;;;;;;5134207;28;19985;-63
2023/06/27 10:51:20;;;;;;;;;;;34.20;44.40;;;;;;5134169;28;20008;-63
2023/06/27 10:54:15;;;;;;;;;;;34.70;47.70;;;;;;5134185;28;19984;-63
2023/06/27 10:56:42;;;;;;;;;;;35.10;46.10;;;;;;5106357;28;19989;-63
2023/06/27 10:59:18;;;;;;;;;;;35.30;45.80;;;;;;5134153;28;19988;-63
2023/06/27 11:01:51;;;;;;;;;;;35.30;44.20;;;;;;5134123;28;20070;-63
2023/06/27 11:04:20;;;;;;;;;;;35.60;46.40;;;;;;5134061;28;20033;-63
2023/06/27 11:06:46;;;;;;;;;;;35.90;43.90;;;;;;5134113;28;19989;-63
2023/06/27 11:09:16;;;;;;;;;;;36.50;46.90;;;;;;5134121;28;19988;-63
2023/06/27 11:11:54;;;;;;;;;;;36.60;44.00;;;;;;5133754;28;20008;-63
2023/06/27 11:14:34;;;;;;;;;;;36.90;43.00;;;;;;5134129;28;19988;-63
2023/06/27 11:17:01;;;;;;;;;;;36.80;42.20;;;;;;5134825;27;20033;-63
2023/06/27 11:19:26;;;;;;;;;;;37.10;44.30;;;;;;5137961;27;20075;-63
2023/06/27 11:21:52;;;;;;;;;;;37.60;41.80;;;;;;5137665;27;20074;-63
2023/06/27 11:24:18;;;;;;;;;;;37.80;43.60;;;;;;5137470;27;20014;-63
2023/06/27 11:26:50;;;;;;;;;;;37.80;41.60;;;;;;5137422;27;19984;-63
2023/06/27 11:29:16;;;;;;;;;;;38.00;42.20;;;;;;5137511;27;19984;-63
2023/06/27 11:31:41;;;;;;;;;;;37.40;41.90;;;;;;5137279;27;20400;-63
2023/06/27 11:34:07;;;;;;;;;;;36.90;41.80;;;;;;5137426;27;20089;-63
2023/06/27 11:36:35;;;;;;;;;;;36.30;42.90;;;;;;5137395;27;19984;-63
2023/06/27 11:39:01;;;;;;;;;;;36.60;44.40;;;;;;5137475;27;20026;-63
2023/06/27 11:41:26;;;;;;;;;;;36.50;43.30;;;;;;5137284;27;20377;-63
2023/06/27 11:43:53;;;;;;;;;;;36.00;42.30;;;;;;5137154;27;20000;-63
2023/06/27 11:46:19;;;;;;;;;;;35.60;43.80;;;;;;5136997;27;20089;-63
2023/06/27 11:48:45;;;;;;;;;;;35.30;43.20;;;;;;5136991;27;20451;-63
2023/06/27 11:51:11;;;;;;;;;;;35.50;45.40;;;;;;5136996;27;20009;-63
2023/06/27 11:53:37;;;;;;;;;;;35.80;44.00;;;;;;5136923;27;19988;-63
2023/06/27 11:56:04;;;;;;;;;;;36.00;43.10;;;;;;5136741;27;19988;-63
2023/06/27 11:58:30;;;;;;;;;;;35.80;41.50;;;;;;5136862;27;20037;-63
2023/06/27 12:00:56;;;;;;;;;;;35.60;43.70;;;;;;5137093;27;19989;-63
2023/06/27 12:03:29;;;;;;;;;;;35.40;45.80;;;;;;5137051;27;20519;-63
2023/06/27 12:05:56;;;;;;;;;;;35.70;42.80;;;;;;5136859;27;20450;-63
2023/06/27 12:08:27;;;;;;;;;;;35.90;41.50;;;;;;5136435;27;20033;-63
2023/06/27 12:10:57;;;;;;;;;;;36.00;43.00;;;;;;5136580;27;19985;-63
2023/06/27 12:13:39;;;;;;;;;;;35.70;43.60;;;;;;5136584;27;19988;-63
2023/06/27 12:16:05;;;;;;;;;;;35.80;42.30;;;;;;5136594;27;20461;-63
2023/06/27 12:18:31;;;;;;;;;;;35.40;43.10;;;;;;5136471;27;19984;-63
2023/06/27 12:20:58;;;;;;;;;;;35.20;43.60;;;;;;5136690;27;19988;-63
2023/06/27 12:23:25;;;;;;;;;;;34.90;41.80;;;;;;5136374;27;20086;-63
2023/06/27 12:25:51;;;;;;;;;;;34.40;44.60;;;;;;5136637;27;20004;-63
2023/06/27 12:28:17;;;;;;;;;;;34.00;42.70;;;;;;5136041;27;19991;-63
2023/06/27 12:30:42;;;;;;;;;;;33.80;42.20;;;;;;5136416;27;19992;-63
2023/06/27 12:33:08;;;;;;;;;;;34.10;46.10;;;;;;5136451;27;20020;-63
2023/06/27 12:35:34;;;;;;;;;;;34.60;45.50;;;;;;5136466;27;20003;-63
2023/06/27 12:38:00;;;;;;;;;;;34.90;46.40;;;;;;5136103;27;19988;-63
2023/06/27 12:40:25;;;;;;;;;;;34.90;44.80;;;;;;5136346;27;20434;-63
2023/06/27 12:42:52;;;;;;;;;;;35.10;43.10;;;;;;5135935;27;20007;-63
2023/06/27 12:45:18;;;;;;;;;;;35.10;42.70;;;;;;5136049;27;20000;-63
2023/06/27 12:47:44;;;;;;;;;;;35.00;44.80;;;;;;5135966;27;19996;-63
2023/06/27 12:50:10;;;;;;;;;;;35.30;44.80;;;;;;5135886;27;19984;-63
2023/06/27 12:52:36;;;;;;;;;;;35.70;47.30;;;;;;5135470;27;20107;-63
2023/06/27 12:55:02;;;;;;;;;;;36.00;45.00;;;;;;5135896;27;20447;-63
2023/06/27 12:57:28;;;;;;;;;;;36.40;44.70;;;;;;5135832;27;20079;-63
2023/06/27 12:59:53;;;;;;;;;;;36.60;45.90;;;;;;5135652;27;20489;-63
2023/06/27 13:02:19;;;;;;;;;;;36.40;41.80;;;;;;5135732;27;19984;-62
2023/06/27 13:04:44;;;;;;;;;;;36.40;41.90;;;;;;5135679;27;19985;-63
2023/06/27 13:07:10;;;;;;;;;;;36.50;42.00;;;;;;5135457;27;20022;-63
2023/06/27 13:09:37;;;;;;;;;;;36.60;42.90;;;;;;5135467;27;19984;-63
2023/06/27 13:12:03;;;;;;;;;;;36.40;43.80;;;;;;5135531;27;20007;-63
2023/06/27 13:14:28;;;;;;;;;;;36.30;46.30;;;;;;5135656;27;19988;-63
2023/06/27 13:16:54;;;;;;;;;;;36.30;44.90;;;;;;5135591;27;20404;-63
2023/06/27 13:19:21;;;;;;;;;;;36.10;42.90;;;;;;5135302;27;20361;-63
2023/06/27 13:21:46;;;;;;;;;;;35.70;42.40;;;;;;5135253;27;20010;-63
2023/06/27 13:24:12;;;;;;;;;;;35.20;43.40;;;;;;5135178;27;19984;-63
2023/06/27 13:26:38;;;;;;;;;;;35.20;46.60;;;;;;5135121;27;19992;-63
2023/06/27 13:29:04;;;;;;;;;;;35.50;43.60;;;;;;5135277;27;20488;-63
2023/06/27 13:31:30;;;;;;;;;;;35.80;46.50;;;;;;5135083;27;20111;-63
2023/06/27 13:33:56;;;;;;;;;;;35.90;46.20;;;;;;5135095;27;20071;-63
2023/06/27 13:36:21;;;;;;;;;;;35.70;45.50;;;;;;5134879;27;20032;-63
2023/06/27 13:38:47;;;;;;;;;;;35.60;45.50;;;;;;5135004;27;20083;-63
2023/06/27 13:41:12;;;;;;;;;;;35.50;43.30;;;;;;5134550;27;19992;-63
2023/06/27 13:43:38;;;;;;;;;;;35.50;45.40;;;;;;5134971;27;20008;-63
2023/06/27 13:46:03;;;;;;;;;;;35.80;45.90;;;;;;5134711;27;20020;-63
2023/06/27 13:48:29;;;;;;;;;;;35.80;45.10;;;;;;5134832;27;20404;-63
2023/06/27 13:50:54;;;;;;;;;;;35.90;45.10;;;;;;5134613;27;20385;-63
2023/06/27 13:53:21;;;;;;;;;;;36.00;44.40;;;;;;5134881;27;20063;-63
2023/06/27 13:55:46;;;;;;;;;;;36.10;44.40;;;;;;5134778;27;19988;-63
2023/06/27 13:58:12;;;;;;;;;;;35.90;47.10;;;;;;5134788;28;20406;-63
2023/06/27 14:00:37;;;;;;;;;;;35.90;45.70;;;;;;5134769;27;20053;-63
2023/06/27 14:03:03;;;;;;;;;;;36.00;46.30;;;;;;5134652;27;19985;-63
2023/06/27 14:05:29;;;;;;;;;;;36.10;44.80;;;;;;5134466;28;19989;-62
2023/06/27 14:07:54;;;;;;;;;;;36.30;44.70;;;;;;5134819;28;20034;-63
2023/06/27 14:10:21;;;;;;;;;;;36.60;44.10;;;;;;5134897;28;20478;-63
2023/06/27 14:12:48;;;;;;;;;;;36.60;44.70;;;;;;5135021;28;20146;-63